Latest Weather Observations for Casino

IDN60801

Issued at 8:05 am EST Tuesday 23 September 2014 (issued every 30 minutes, with the page automatically refreshed every 10 minutes)

About weather observations | Map of weather stations | Latest weather observations for NSW | Other Formats
Station Details ID: 058208 Name: CASINO AIRPORT AWS Lat: -28.88 Lon: 153.06 Height: 20.9 m
Data from the previous 72 hours. | See also: Recent months at Casino
Date/Time
EST
Temp
°C
App
Temp
°C
Dew
Point
Rel
Hum
%
Delta-T
°C
Wind Press
QNH
hPa
Press
MSL
hPa
Rain
since 9 am
mm
Dir
 
Spd
km/h
Gust
km/h
Spd
kts
Gust
kts
23/08:00am 16.1 14.2 10.6 70 2.9 S 11 15 6 8 1029.7 1029.6 0.0
23/07:30am 14.5 13.8 11.5 82 1.6 WSW 6 9 3 5 1029.5 1029.4 0.0
23/07:00am 13.2 13.3 11.4 89 0.9 WNW 2 7 1 4 1029.3 1029.2 0.0
23/06:30am 11.5 11.7 10.6 94 0.5 CALM 0 6 0 3 1029.3 1029.2 0.0
23/06:00am 9.0 7.8 7.9 93 0.5 WNW 4 6 2 3 1029.2 1029.1 0.0
23/05:30am 9.4 9.0 8.3 93 0.5 CALM 0 6 0 3 1029.0 1028.9 0.0
23/05:00am 9.2 7.4 8.1 93 0.5 WNW 7 11 4 6 1028.7 1028.6 0.0
23/04:30am 8.8 7.1 7.4 91 0.7 NW 6 7 3 4 1028.4 1028.3 0.0
23/04:00am 9.3 8.9 8.1 92 0.6 CALM 0 0 0 0 1028.0 1027.9 0.0
23/03:30am 9.7 9.4 8.5 92 0.6 CALM 0 0 0 0 1028.0 1027.9 0.0
23/03:00am 10.0 9.7 8.6 91 0.7 CALM 0 0 0 0 1028.0 1027.9 0.0
23/02:30am 9.9 8.7 8.2 89 0.8 SE 4 6 2 3 1027.9 1027.8 0.0
23/02:00am 10.3 9.2 8.4 88 0.9 NNE 4 6 2 3 1028.2 1028.1 0.0
23/01:30am 11.5 11.5 9.9 90 0.8 CALM 0 0 0 0 1028.4 1028.3 0.0
23/01:00am 11.4 11.0 9.8 90 0.8 WNW 2 6 1 3 1028.6 1028.5 0.0
23/12:30am 11.7 11.9 10.4 92 0.7 CALM 0 0 0 0 1028.7 1028.6 0.0
23/12:00am 10.9 10.8 9.3 90 0.8 CALM 0 2 0 1 1028.9 1028.8 0.0
 
Date/Time
EST
Temp
°C
App
Temp
°C
Dew
Point
Rel
Hum
%
Delta-T
°C
Wind Press
QNH
hPa
Press
MSL
hPa
Rain
since 9 am
mm
Dir
 
Spd
km/h
Gust
km/h
Spd
kts
Gust
kts
22/11:30pm 11.0 10.9 9.3 89 0.9 CALM 0 0 0 0 1029.1 1029.0 0.0
22/11:00pm 10.6 10.1 8.0 84 1.3 CALM 0 0 0 0 1029.3 1029.2 0.0
22/10:30pm 12.1 10.8 9.3 83 1.4 SW 6 7 3 4 1029.5 1029.4 0.0
22/10:00pm 13.2 12.1 10.7 85 1.3 NW 7 9 4 5 1029.8 1029.7 0.0
22/09:30pm 12.0 10.8 9.7 86 1.2 NW 6 7 3 4 1029.5 1029.4 0.0
22/09:00pm 12.4 12.0 9.8 84 1.3 SSW 2 6 1 3 1029.1 1029.0 0.0
22/08:30pm 13.1 13.2 10.1 82 1.5 CALM 0 0 0 0 1029.2 1029.1 0.0
22/08:00pm 13.4 13.5 10.2 81 1.6 CALM 0 0 0 0 1028.9 1028.8 0.0
22/07:30pm 13.4 13.3 9.5 77 2.0 CALM 0 0 0 0 1028.8 1028.7 0.0
22/07:00pm 14.0 12.6 9.0 72 2.5 SE 6 7 3 4 1028.7 1028.6 0.0
22/06:30pm 14.7 13.1 8.9 68 3.0 SE 7 11 4 6 1028.5 1028.4 0.0
22/06:00pm 15.6 13.3 9.1 65 3.3 ESE 11 15 6 8 1028.2 1028.1 0.0
22/05:30pm 17.6 14.3 9.5 59 4.2 ESE 17 20 9 11 1028.0 1027.9 0.0
22/05:00pm 18.7 14.0 9.2 54 5.0 ESE 24 30 13 16 1027.7 1027.6 0.0
22/04:30pm 20.3 14.8 9.2 49 5.9 ESE 28 35 15 19 1027.4 1027.3 0.0
22/04:00pm 20.4 15.3 9.3 49 5.9 ESE 26 33 14 18 1027.0 1026.9 0.0
22/03:30pm 20.5 14.5 8.8 47 6.2 ESE 30 39 16 21 1027.0 1026.9 0.0
22/03:00pm 21.1 15.0 8.4 44 6.6 ESE 30 39 16 21 1027.0 1026.9 0.0
22/02:30pm 22.7 17.2 9.1 42 7.3 ESE 28 39 15 21 1026.9 1026.8 0.0
22/02:00pm 23.3 17.4 9.0 40 7.6 ESE 30 39 16 21 1027.0 1026.9 0.0
22/01:30pm 23.2 17.7 9.2 41 7.5 SE 28 35 15 19 1027.1 1027.0 0.0
22/01:00pm 23.6 18.7 9.9 42 7.4 SE 26 33 14 18 1027.4 1027.3 0.0
22/12:30pm 21.3 17.4 9.5 47 6.3 SE 20 32 11 17 1027.9 1027.8 0.0
22/12:00pm 23.2 19.7 10.3 44 7.0 SSE 19 30 10 16 1028.1 1028.0 0.0
22/11:30am 21.1 18.0 11.7 55 5.2 SE 19 30 10 16 1028.5 1028.4 0.0
22/11:00am 21.1 18.6 12.3 57 4.9 SE 17 24 9 13 1028.8 1028.7 0.0
22/10:30am 20.4 18.5 13.1 63 4.2 S 15 22 8 12 1029.5 1029.4 0.0
22/10:00am 19.6 17.7 13.1 66 3.7 S 15 19 8 10 1029.7 1029.6 0.0
22/09:30am 17.5 15.0 12.4 72 2.8 S 17 28 9 15 1029.9 1029.8 0.0
22/09:00am 16.7 14.4 13.0 79 2.0 S 17 26 9 14 1029.6 1029.5 0.6
22/08:30am 18.2 16.4 13.3 73 2.8 S 15 22 8 12 1029.7 1029.6 0.6
22/08:00am 16.4 14.6 12.2 76 2.3 S 13 20 7 11 1029.5 1029.4 0.6
22/07:30am 15.1 13.7 10.9 76 2.2 S 9 13 5 7 1029.4 1029.3 0.6
22/07:00am 14.1 13.7 11.1 82 1.6 S 4 9 2 5 1029.2 1029.1 0.6
22/06:30am 13.1 13.2 11.5 90 0.8 S 2 6 1 3 1028.5 1028.4 0.6
22/06:00am 12.0 11.9 10.9 93 0.6 WSW 2 7 1 4 1028.4 1028.3 0.6
22/05:30am 11.4 11.5 10.0 91 0.7 CALM 0 0 0 0 1028.0 1027.9 0.2
22/05:00am 11.6 11.3 10.0 90 0.8 WSW 2 7 1 4 1027.5 1027.4 0.2
22/04:30am 11.8 11.9 10.0 89 0.9 CALM 0 0 0 0 1027.4 1027.3 0.2
22/04:00am 11.5 11.1 9.6 88 1.0 NNE 2 9 1 5 1027.2 1027.1 0.2
22/03:30am 11.5 11.4 9.4 87 1.1 CALM 0 0 0 0 1027.1 1027.0 0.0
22/03:00am 11.6 10.3 9.3 86 1.1 N 6 7 3 4 1027.2 1027.1 0.0
22/02:30am 11.8 10.6 9.4 85 1.2 N 6 7 3 4 1027.3 1027.2 0.0
22/02:00am 12.2 10.9 9.9 86 1.2 NNW 7 7 4 4 1027.6 1027.5 0.0
22/01:30am 12.0 11.9 9.6 85 1.2 CALM 0 0 0 0 1027.8 1027.7 0.0
22/01:00am 12.2 12.2 9.8 85 1.2 CALM 0 0 0 0 1028.0 1027.9 0.0
22/12:30am 12.1 12.1 9.7 85 1.2 CALM 0 0 0 0 1028.6 1028.5 0.0
22/12:00am 11.4 11.1 8.6 83 1.4 CALM 0 0 0 0 1028.5 1028.4 0.0
 
Date/Time
EST
Temp
°C
App
Temp
°C
Dew
Point
Rel
Hum
%
Delta-T
°C
Wind Press
QNH
hPa
Press
MSL
hPa
Rain
since 9 am
mm
Dir
 
Spd
km/h
Gust
km/h
Spd
kts
Gust
kts
21/11:30pm 12.2 10.8 9.4 83 1.4 S 7 9 4 5 1028.3 1028.2 0.0
21/11:00pm 12.3 11.4 9.1 81 1.6 NNE 4 9 2 5 1028.7 1028.6 0.0
21/10:30pm 14.3 12.2 9.9 75 2.3 SSW 11 15 6 8 1028.5 1028.4 0.0
21/10:00pm 14.4 12.4 10.0 75 2.3 S 11 15 6 8 1028.6 1028.5 0.0
21/09:30pm 15.2 13.3 10.4 73 2.5 SSW 11 13 6 7 1028.8 1028.7 0.0
21/09:00pm 15.8 14.4 10.8 72 2.6 SSW 9 15 5 8 1028.8 1028.7 0.0
21/08:30pm 15.8 14.3 10.6 71 2.8 SSW 9 13 5 7 1028.6 1028.5 0.0
21/08:00pm 16.0 14.6 11.0 72 2.7 SW 9 11 5 6 1028.5 1028.4 0.0
21/07:30pm 16.2 15.2 10.9 71 2.8 SSW 7 11 4 6 1028.2 1028.1 0.0
21/07:00pm 16.3 15.3 11.0 71 2.8 SSW 7 9 4 5 1027.7 1027.6 0.0
21/06:30pm 16.4 15.7 11.3 72 2.7 S 6 9 3 5 1027.2 1027.1 0.0
21/06:00pm 16.8 14.7 11.1 69 3.0 SE 13 15 7 8 1027.1 1027.0 0.0
21/05:30pm 16.9 15.2 11.2 69 3.1 SE 11 17 6 9 1026.8 1026.7 0.0
21/05:00pm 17.3 14.3 10.7 65 3.5 SSE 17 24 9 13 1026.3 1026.2 0.0
21/04:30pm 18.3 14.6 9.6 57 4.6 SSE 19 35 10 19 1026.2 1026.1 0.0
21/04:00pm 19.0 13.7 11.3 61 4.2 SE 30 43 16 23 1025.8 1025.7 0.0
21/03:30pm 19.8 13.8 10.0 53 5.3 SE 32 43 17 23 1025.6 1025.5 0.0
21/03:00pm 21.9 17.2 10.7 49 6.1 SE 26 37 14 20 1025.3 1025.2 0.0
21/02:30pm 20.4 14.9 9.3 49 5.9 ESE 28 37 15 20 1025.0 1024.9 0.0
21/02:00pm 20.8 16.4 8.8 46 6.3 SE 22 33 12 18 1025.0 1024.9 0.0
21/01:30pm 21.7 19.2 12.3 55 5.3 SSE 17 26 9 14 1025.3 1025.2 0.0
21/01:00pm 20.8 17.2 10.0 50 5.8 SSE 19 28 10 15 1025.6 1025.5 0.0
21/12:30pm 22.4 18.5 9.6 44 6.9 ESE 20 26 11 14 1026.1 1026.0 0.0
21/12:00pm 20.0 16.2 9.0 49 5.8 SSE 19 26 10 14 1026.3 1026.2 0.0
21/11:30am 20.3 17.5 10.1 52 5.5 SSE 15 22 8 12 1026.3 1026.2 0.0
21/11:00am 22.8 21.1 11.2 48 6.4 SE 11 19 6 10 1026.9 1026.8 0.0
21/10:30am 20.7 17.7 10.8 53 5.4 SSE 17 24 9 13 1027.4 1027.3 0.0
21/10:00am 19.7 16.4 9.6 52 5.3 S 17 24 9 13 1027.9 1027.8 0.0
21/09:30am 19.8 17.2 10.8 56 4.9 SSE 15 20 8 11 1028.1 1028.0 0.0
21/09:00am 19.6 16.7 10.9 57 4.7 S 17 28 9 15 1028.2 1028.1 0.0
21/08:30am 17.7 15.6 9.6 59 4.3 SSW 11 17 6 9 1028.0 1027.9 0.0
21/08:00am 15.0 13.7 9.8 71 2.7 SSW 7 11 4 6 1027.9 1027.8 0.0
21/07:30am 14.4 13.0 9.6 73 2.5 NW 7 11 4 6 1027.7 1027.6 0.0
21/07:00am 12.3 11.1 9.5 83 1.4 WNW 6 7 3 4 1027.4 1027.3 0.0
21/06:30am 10.7 10.1 9.1 90 0.8 W 2 7 1 4 1027.0 1026.9 0.0
21/06:00am 9.5 7.7 7.9 90 0.8 NW 7 9 4 5 1026.7 1026.6 0.0
21/05:30am 9.7 8.1 8.0 89 0.8 WNW 6 7 3 4 1026.4 1026.3 0.0
21/05:00am 9.4 7.7 7.7 89 0.8 NW 6 7 3 4 1026.0 1025.9 0.0
21/04:30am 9.0 7.6 7.3 89 0.8 W 4 7 2 4 1025.6 1025.5 0.0
21/04:00am 8.5 7.8 6.8 89 0.8 CALM 0 0 0 0 1025.4 1025.3 0.0
21/03:30am 9.0 8.4 7.6 91 0.7 CALM 0 0 0 0 1025.1 1025.0 0.0
21/03:00am 8.6 7.5 7.1 90 0.7 WNW 2 6 1 3 1025.0 1024.9 0.0
21/02:30am 8.5 7.1 7.1 91 0.7 WSW 4 7 2 4 1025.3 1025.2 0.0
21/02:00am 7.4 5.2 6.0 91 0.6 N 7 11 4 6 1025.7 1025.6 0.0
21/01:30am 6.9 4.5 5.2 89 0.7 SSW 7 11 4 6 1025.6 1025.5 0.0
21/01:00am 7.2 4.9 5.7 90 0.7 S 7 9 4 5 1025.7 1025.6 0.0
21/12:30am 8.1 7.3 6.7 91 0.6 CALM 0 0 0 0 1026.0 1025.9 0.0
21/12:00am 8.5 6.7 7.1 91 0.7 NNW 6 7 3 4 1026.2 1026.1 0.0
 
Date/Time
EST
Temp
°C
App
Temp
°C
Dew
Point
Rel
Hum
%
Delta-T
°C
Wind Press
QNH
hPa
Press
MSL
hPa
Rain
since 9 am
mm
Dir
 
Spd
km/h
Gust
km/h
Spd
kts
Gust
kts
20/11:30pm 7.7 6.7 5.7 87 0.9 CALM 0 0 0 0 1026.1 1026.0 0.0
20/11:00pm 9.1 8.5 7.2 88 0.9 CALM 0 0 0 0 1026.1 1026.0 0.0
20/10:30pm 9.4 8.8 7.3 87 1.0 CALM 0 0 0 0 1026.0 1025.9 0.0
20/10:00pm 9.7 8.1 7.8 88 0.9 NW 6 6 3 3 1026.0 1025.9 0.0
20/09:30pm 9.5 7.8 7.4 87 1.0 N 6 7 3 4 1025.8 1025.7 0.0
20/09:00pm 9.4 8.6 6.7 83 1.3 CALM 0 4 0 2 1025.5 1025.4 0.0
20/08:30pm 9.9 8.4 6.6 80 1.5 SW 4 7 2 4 1025.0 1024.9 0.0
20/08:00pm 11.4 9.8 8.1 80 1.6 SW 6 7 3 4 1024.8 1024.7 0.0
20/07:30pm 12.7 11.2 8.6 76 2.0 W 6 7 3 4 1024.3 1024.2 0.0
20/07:00pm 13.8 12.3 8.4 70 2.7 SSE 6 6 3 3 1023.8 1023.7 0.0
20/06:30pm 14.6 12.3 7.6 63 3.5 ESE 9 11 5 6 1023.3 1023.2 0.0
20/06:00pm 16.1 13.1 7.8 58 4.1 ESE 13 19 7 10 1022.7 1022.6 0.0
20/05:30pm 17.7 13.7 8.3 54 4.8 SE 19 26 10 14 1022.2 1022.1 0.0
20/05:00pm 19.0 14.8 8.1 49 5.6 SE 20 28 11 15 1021.7 1021.6 0.0
20/04:30pm 19.8 14.4 6.5 42 6.7 ESE 24 32 13 17 1020.9 1020.8 0.0
20/04:00pm 20.9 15.8 7.5 42 6.9 E 24 35 13 19 1020.4 1020.3 0.0
20/03:30pm 21.1 15.3 6.2 38 7.5 ESE 26 32 14 17 1020.4 1020.3 0.0
20/03:00pm 21.6 16.0 7.1 39 7.4 ESE 26 33 14 18 1020.0 1019.9 0.0
20/02:30pm 22.2 16.3 6.0 35 8.2 ESE 26 33 14 18 1019.8 1019.7 0.0
20/02:00pm 22.8 17.6 7.4 37 8.0 ESE 24 33 13 18 1019.8 1019.7 0.0
20/01:30pm 23.1 18.4 5.1 31 9.0 E 19 30 10 16 1020.0 1019.9 0.0
20/01:00pm 20.9 15.8 6.1 38 7.4 E 22 33 12 18 1020.4 1020.3 0.0
20/12:30pm 22.5 19.6 8.2 40 7.5 ESE 13 20 7 11 1020.6 1020.5 0.0
20/12:00pm 20.9 18.0 6.4 39 7.3 SSE 11 19 6 10 1021.1 1021.0 0.0
20/11:30am 22.0 20.5 9.2 44 6.8 ENE 7 13 4 7 1021.6 1021.5 0.0
20/11:00am 20.9 19.8 9.8 49 5.9 SE 6 19 3 10 1022.2 1022.1 0.0
20/10:30am 20.7 19.7 10.2 51 5.7 S 6 13 3 7 1022.4 1022.3 0.0
20/10:00am 19.0 16.9 9.8 55 4.9 SW 11 17 6 9 1022.8 1022.7 0.0
20/09:30am 19.7 18.3 10.9 57 4.8 ESE 9 15 5 8 1023.1 1023.0 0.0
20/09:00am 18.5 17.4 10.8 61 4.1 ENE 7 13 4 7 1023.2 1023.1 0.0
20/08:30am 18.2 17.3 11.3 64 3.8 ENE 7 13 4 7 1023.1 1023.0 0.0

Other Formats:

Comma delimited format used in spreadsheet applications
http://www.bom.gov.au/fwo/IDN60801/IDN60801.94573.axf

JavaScript Object Notation format (JSON) in row-major order
http://www.bom.gov.au/fwo/IDN60801/IDN60801.94573.json